Time;durP1;ratioP1;P1;durP2;ratioP2;P2;SDS_P1;SDS_P2;PMS_P1;PMS_P2;Temp;Humidity;BMP_temperature;BMP_pressure;BME280_temperature;BME280_humidity;BME280_pressure;Samples;Min_cycle;Max_cycle;Signal;HPM_P1;HPM_P2
2023/10/21 00:02:26;;;;;;;7.60;5.93;;;;;;;;;;5070416;28;20288;-77
2023/10/21 00:04:53;;;;;;;7.17;5.73;;;;;;;;;;5071011;28;20201;-76
2023/10/21 00:07:20;;;;;;;10.20;6.97;;;;;;;;;;5070195;28;20208;-76
2023/10/21 00:09:48;;;;;;;8.87;6.97;;;;;;;;;;5070378;28;20239;-76
2023/10/21 00:12:15;;;;;;;11.17;7.70;;;;;;;;;;5069871;28;20212;-76
2023/10/21 00:14:42;;;;;;;6.33;5.73;;;;;;;;;;5070447;28;20205;-77
2023/10/21 00:17:09;;;;;;;8.70;5.90;;;;;;;;;;5069745;28;20711;-76
2023/10/21 00:19:36;;;;;;;6.77;6.07;;;;;;;;;;5070668;28;20668;-76
2023/10/21 00:22:03;;;;;;;7.40;6.50;;;;;;;;;;5069769;28;20576;-77
2023/10/21 00:24:30;;;;;;;10.33;6.43;;;;;;;;;;5070578;28;20205;-76
2023/10/21 00:26:58;;;;;;;7.33;6.73;;;;;;;;;;5070217;28;20204;-77
2023/10/21 00:29:25;;;;;;;10.10;7.33;;;;;;;;;;5070467;28;20594;-76
2023/10/21 00:31:52;;;;;;;7.87;7.17;;;;;;;;;;5069814;28;20208;-76
2023/10/21 00:34:19;;;;;;;9.97;6.97;;;;;;;;;;5072763;28;20205;-76
2023/10/21 00:36:46;;;;;;;7.83;7.03;;;;;;;;;;5073510;28;20197;-76
2023/10/21 00:39:13;;;;;;;8.40;6.40;;;;;;;;;;5074431;28;20225;-77
2023/10/21 00:41:40;;;;;;;8.87;7.30;;;;;;;;;;5073497;28;20200;-76
2023/10/21 00:44:08;;;;;;;7.37;6.67;;;;;;;;;;5074301;28;20208;-76
2023/10/21 00:46:36;;;;;;;11.20;8.00;;;;;;;;;;5073995;28;20216;-76
2023/10/21 00:49:04;;;;;;;7.97;7.27;;;;;;;;;;5073917;28;20649;-76
2023/10/21 00:51:31;;;;;;;8.93;7.03;;;;;;;;;;5073055;28;20211;-77
2023/10/21 00:53:58;;;;;;;6.73;6.13;;;;;;;;;;5073882;28;20203;-77
2023/10/21 00:56:25;;;;;;;7.93;6.60;;;;;;;;;;5073687;28;20235;-77
2023/10/21 00:58:52;;;;;;;7.33;6.63;;;;;;;;;;5073861;28;20256;-76
2023/10/21 01:01:21;;;;;;;8.17;7.23;;;;;;;;;;5073103;28;20620;-76
2023/10/21 01:03:49;;;;;;;8.47;7.53;;;;;;;;;;5073620;28;20291;-76
2023/10/21 01:06:16;;;;;;;7.63;6.93;;;;;;;;;;5073642;28;20209;-76
2023/10/21 01:08:43;;;;;;;7.23;5.93;;;;;;;;;;5073292;28;20647;-76
2023/10/21 01:11:10;;;;;;;10.37;7.00;;;;;;;;;;5073324;28;20201;-76
2023/10/21 01:13:37;;;;;;;7.13;5.90;;;;;;;;;;5072786;28;20197;-76
2023/10/21 01:16:04;;;;;;;7.20;5.70;;;;;;;;;;5062016;28;20224;-77
2023/10/21 01:18:35;;;;;;;8.20;5.73;;;;;;;;;;5064358;28;20785;-76
2023/10/21 01:21:02;;;;;;;7.70;5.97;;;;;;;;;;5064541;28;20233;-77
2023/10/21 01:23:31;;;;;;;6.33;5.77;;;;;;;;;;5062636;28;20205;-77
2023/10/21 01:25:59;;;;;;;8.20;5.87;;;;;;;;;;5064658;28;20749;-77
2023/10/21 01:28:25;;;;;;;7.37;6.00;;;;;;;;;;5064003;28;20285;-77
2023/10/21 01:30:52;;;;;;;8.73;5.93;;;;;;;;;;5064386;28;20207;-77
2023/10/21 01:33:19;;;;;;;6.90;6.30;;;;;;;;;;5064139;28;20197;-77
2023/10/21 01:35:46;;;;;;;6.70;6.03;;;;;;;;;;5065957;28;20198;-77
2023/10/21 01:38:15;;;;;;;7.47;6.50;;;;;;;;;;5061778;28;20228;-77
2023/10/21 01:40:43;;;;;;;6.93;6.27;;;;;;;;;;5064558;28;20210;-76
2023/10/21 01:43:10;;;;;;;7.00;6.23;;;;;;;;;;5064497;28;20584;-78
2023/10/21 01:45:37;;;;;;;8.80;6.83;;;;;;;;;;5062794;28;20189;-77
2023/10/21 01:48:05;;;;;;;6.83;6.20;;;;;;;;;;5064708;28;20224;-77
2023/10/21 01:50:32;;;;;;;8.00;7.20;;;;;;;;;;5072865;28;20225;-77
2023/10/21 01:52:59;;;;;;;7.47;6.57;;;;;;;;;;5072395;28;20197;-77
2023/10/21 01:55:26;;;;;;;6.00;5.50;;;;;;;;;;5073109;28;20208;-77
2023/10/21 01:57:54;;;;;;;11.03;6.47;;;;;;;;;;5071881;28;20221;-77
2023/10/21 02:00:21;;;;;;;7.37;6.67;;;;;;;;;;5072656;28;20557;-77
2023/10/21 02:02:51;;;;;;;7.73;5.83;;;;;;;;;;5072122;28;20201;-77
2023/10/21 02:05:19;;;;;;;9.03;5.93;;;;;;;;;;5061028;28;20229;-76
2023/10/21 02:07:46;;;;;;;6.43;5.83;;;;;;;;;;5070874;28;20292;-77
2023/10/21 02:10:13;;;;;;;6.97;5.97;;;;;;;;;;5072445;28;20204;-77
2023/10/21 02:12:40;;;;;;;6.70;6.00;;;;;;;;;;5071940;28;20219;-76
2023/10/21 02:15:14;;;;;;;9.03;6.60;;;;;;;;;;5071784;28;20201;-77
2023/10/21 02:17:42;;;;;;;6.80;5.63;;;;;;;;;;5072344;28;20216;-76
2023/10/21 02:20:10;;;;;;;6.90;6.17;;;;;;;;;;5071869;28;20639;-77
2023/10/21 02:22:37;;;;;;;6.47;5.80;;;;;;;;;;5072638;28;20201;-77
2023/10/21 02:25:05;;;;;;;9.60;7.87;;;;;;;;;;5072095;28;20201;-78
2023/10/21 02:27:31;;;;;;;7.73;6.23;;;;;;;;;;5072063;28;20622;-77
2023/10/21 02:29:59;;;;;;;9.33;6.20;;;;;;;;;;5072124;28;20204;-76
2023/10/21 02:32:27;;;;;;;6.60;6.00;;;;;;;;;;5071987;28;20215;-76
2023/10/21 02:34:55;;;;;;;7.73;6.13;;;;;;;;;;5071616;28;20630;-76
2023/10/21 02:37:22;;;;;;;8.63;6.13;;;;;;;;;;5072292;28;20263;-77
2023/10/21 02:39:49;;;;;;;6.27;5.60;;;;;;;;;;5071840;28;20221;-77
2023/10/21 02:42:16;;;;;;;7.63;6.23;;;;;;;;;;5071804;28;20675;-77
2023/10/21 02:44:43;;;;;;;7.57;5.90;;;;;;;;;;5068436;28;20205;-76
2023/10/21 02:47:10;;;;;;;7.13;6.43;;;;;;;;;;5054991;28;20209;-77
2023/10/21 02:49:38;;;;;;;6.70;6.07;;;;;;;;;;5067969;28;20240;-77
2023/10/21 02:52:05;;;;;;;8.73;7.07;;;;;;;;;;5052271;28;20202;-77
2023/10/21 02:54:32;;;;;;;7.43;6.53;;;;;;;;;;5052976;28;20221;-77
2023/10/21 02:56:58;;;;;;;9.73;7.17;;;;;;;;;;5052176;28;20210;-76
2023/10/21 02:59:26;;;;;;;7.87;5.93;;;;;;;;;;5053396;28;20229;-77
2023/10/21 03:01:53;;;;;;;6.57;5.97;;;;;;;;;;5052697;28;20212;-77
2023/10/21 03:04:20;;;;;;;7.20;6.10;;;;;;;;;;5054483;28;20566;-77
2023/10/21 03:06:48;;;;;;;6.87;6.17;;;;;;;;;;5049983;28;20275;-77
2023/10/21 03:09:16;;;;;;;6.70;6.10;;;;;;;;;;5054907;28;20666;-77
2023/10/21 03:11:43;;;;;;;7.50;6.03;;;;;;;;;;5049491;28;20713;-77
2023/10/21 03:14:10;;;;;;;7.80;6.10;;;;;;;;;;5054663;28;20213;-77
2023/10/21 03:16:37;;;;;;;7.67;5.70;;;;;;;;;;5055143;28;20198;-78
2023/10/21 03:19:05;;;;;;;8.60;6.33;;;;;;;;;;5055388;28;20225;-77
2023/10/21 03:21:31;;;;;;;8.30;5.77;;;;;;;;;;5056618;28;20720;-77
2023/10/21 03:24:00;;;;;;;7.43;6.73;;;;;;;;;;5050592;28;20210;-76
2023/10/21 03:26:26;;;;;;;8.40;6.77;;;;;;;;;;5064806;28;20606;-78
2023/10/21 03:28:53;;;;;;;9.17;6.77;;;;;;;;;;5063099;28;20204;-81
2023/10/21 03:31:21;;;;;;;8.80;6.70;;;;;;;;;;5069257;28;20208;-80
2023/10/21 03:33:48;;;;;;;7.53;6.80;;;;;;;;;;5059964;28;20209;-80
2023/10/21 03:36:14;;;;;;;7.83;6.17;;;;;;;;;;5062818;28;20202;-80
2023/10/21 03:38:42;;;;;;;7.17;6.47;;;;;;;;;;5070751;28;20224;-80
2023/10/21 03:41:12;;;;;;;6.80;5.57;;;;;;;;;;5070035;28;20287;-81
2023/10/21 03:43:39;;;;;;;9.13;6.40;;;;;;;;;;5070847;28;20703;-82
2023/10/21 03:46:07;;;;;;;8.83;6.57;;;;;;;;;;5070670;28;20205;-81
2023/10/21 03:48:34;;;;;;;7.20;6.50;;;;;;;;;;5070629;28;20204;-78
2023/10/21 03:51:05;;;;;;;8.33;6.07;;;;;;;;;;5068935;28;20225;-78
2023/10/21 03:53:32;;;;;;;7.20;6.50;;;;;;;;;;5059049;28;20216;-78
2023/10/21 03:55:59;;;;;;;7.40;6.17;;;;;;;;;;5070586;28;20293;-78
2023/10/21 03:58:28;;;;;;;11.63;6.17;;;;;;;;;;5070344;28;20224;-78
2023/10/21 04:00:57;;;;;;;6.07;5.40;;;;;;;;;;5069802;28;20201;-78
2023/10/21 04:03:23;;;;;;;7.30;5.53;;;;;;;;;;5070367;28;20757;-78
2023/10/21 04:05:51;;;;;;;7.67;6.53;;;;;;;;;;5065898;28;20205;-78
2023/10/21 04:08:17;;;;;;;7.70;5.53;;;;;;;;;;5060876;28;20208;-78
2023/10/21 04:10:44;;;;;;;7.03;5.67;;;;;;;;;;5064078;28;20209;-78
2023/10/21 04:13:11;;;;;;;6.87;6.17;;;;;;;;;;5069902;28;20197;-78
2023/10/21 04:15:39;;;;;;;7.40;5.60;;;;;;;;;;5070989;28;20197;-78
2023/10/21 04:18:06;;;;;;;8.50;5.77;;;;;;;;;;5069525;28;20196;-78
2023/10/21 04:20:33;;;;;;;8.97;6.30;;;;;;;;;;5070446;28;20196;-78
2023/10/21 04:23:00;;;;;;;8.60;5.87;;;;;;;;;;5069764;28;20578;-78
2023/10/21 04:25:28;;;;;;;9.97;6.47;;;;;;;;;;5070745;28;20213;-77
2023/10/21 04:27:55;;;;;;;7.37;6.00;;;;;;;;;;5070414;28;20262;-78
2023/10/21 04:30:23;;;;;;;8.37;5.93;;;;;;;;;;5069974;28;20208;-79
2023/10/21 04:32:51;;;;;;;10.07;7.83;;;;;;;;;;5067416;28;20193;-81
2023/10/21 04:35:18;;;;;;;11.37;9.80;;;;;;;;;;5070920;28;20204;-81
2023/10/21 04:37:45;;;;;;;16.13;13.03;;;;;;;;;;5068989;28;20194;-80
2023/10/21 04:40:12;;;;;;;14.37;12.83;;;;;;;;;;5062598;28;20228;-81
2023/10/21 04:42:40;;;;;;;14.57;10.97;;;;;;;;;;5060453;28;20288;-81
2023/10/21 04:45:08;;;;;;;15.83;10.33;;;;;;;;;;5069084;28;20627;-81
2023/10/21 04:47:34;;;;;;;10.60;9.00;;;;;;;;;;5069869;28;20201;-81
2023/10/21 04:50:04;;;;;;;10.80;9.70;;;;;;;;;;5069130;28;20228;-81
2023/10/21 04:52:32;;;;;;;10.73;9.67;;;;;;;;;;5069646;28;20205;-81
2023/10/21 04:55:00;;;;;;;10.40;8.53;;;;;;;;;;5070242;28;20205;-81
2023/10/21 04:57:26;;;;;;;14.43;9.77;;;;;;;;;;5069784;28;20680;-81
2023/10/21 04:59:53;;;;;;;7.77;6.97;;;;;;;;;;5064107;28;20257;-81
2023/10/21 05:02:20;;;;;;;7.60;6.70;;;;;;;;;;5069915;28;20197;-81
2023/10/21 05:04:47;;;;;;;7.67;6.80;;;;;;;;;;5069852;28;20212;-80
2023/10/21 05:07:15;;;;;;;11.03;7.23;;;;;;;;;;5069727;28;20198;-81
2023/10/21 05:09:42;;;;;;;7.20;6.50;;;;;;;;;;5069348;28;20586;-80
2023/10/21 05:12:10;;;;;;;7.67;6.30;;;;;;;;;;5070183;28;20209;-81
2023/10/21 05:14:37;;;;;;;6.60;6.00;;;;;;;;;;5058016;28;20201;-81
2023/10/21 05:17:05;;;;;;;8.50;6.50;;;;;;;;;;5069971;28;20262;-81
2023/10/21 05:19:32;;;;;;;7.30;6.43;;;;;;;;;;5070297;28;20224;-80
2023/10/21 05:21:58;;;;;;;8.80;7.90;;;;;;;;;;5064295;28;20220;-81
2023/10/21 05:24:27;;;;;;;10.03;6.87;;;;;;;;;;5056182;28;20599;-81
2023/10/21 05:26:53;;;;;;;7.93;6.60;;;;;;;;;;5053370;28;20205;-81
2023/10/21 05:29:20;;;;;;;7.73;6.90;;;;;;;;;;5055441;28;20198;-80
2023/10/21 05:31:47;;;;;;;7.17;6.43;;;;;;;;;;5054440;28;20209;-80
2023/10/21 05:34:18;;;;;;;6.67;6.10;;;;;;;;;;5065170;28;20213;-81
2023/10/21 05:36:45;;;;;;;6.93;5.60;;;;;;;;;;5052874;28;20597;-81
2023/10/21 05:39:12;;;;;;;10.90;6.50;;;;;;;;;;5053121;28;20589;-80
2023/10/21 05:41:41;;;;;;;7.67;6.97;;;;;;;;;;5053318;28;20213;-81
2023/10/21 05:44:08;;;;;;;13.47;6.73;;;;;;;;;;5053223;28;20212;-81
2023/10/21 05:46:35;;;;;;;9.40;7.57;;;;;;;;;;5052783;28;20236;-81
2023/10/21 05:49:02;;;;;;;11.13;7.50;;;;;;;;;;5056905;28;20676;-81
2023/10/21 05:51:30;;;;;;;9.40;7.33;;;;;;;;;;5055286;28;20214;-80
2023/10/21 05:53:57;;;;;;;11.87;8.17;;;;;;;;;;5072841;28;20688;-80
2023/10/21 05:56:24;;;;;;;18.40;8.33;;;;;;;;;;5071836;28;20284;-81
2023/10/21 05:58:52;;;;;;;13.93;7.57;;;;;;;;;;5071885;28;20626;-82
2023/10/21 06:01:19;;;;;;;9.77;7.37;;;;;;;;;;5069814;28;20297;-82
2023/10/21 06:03:47;;;;;;;10.53;7.70;;;;;;;;;;5072613;28;20207;-82
2023/10/21 06:06:14;;;;;;;11.97;7.17;;;;;;;;;;5073137;28;20209;-82
2023/10/21 06:08:40;;;;;;;10.97;7.20;;;;;;;;;;5064265;28;20623;-81
2023/10/21 06:11:08;;;;;;;7.40;6.73;;;;;;;;;;5072578;28;20595;-81
2023/10/21 06:13:34;;;;;;;8.37;7.20;;;;;;;;;;5070533;28;20236;-81
2023/10/21 06:16:03;;;;;;;8.33;6.73;;;;;;;;;;5071115;28;20193;-81
2023/10/21 06:18:30;;;;;;;13.03;7.47;;;;;;;;;;5065003;28;20644;-82
2023/10/21 06:20:57;;;;;;;10.63;8.27;;;;;;;;;;5055431;28;20697;-81
2023/10/21 06:23:23;;;;;;;18.50;9.50;;;;;;;;;;5066832;28;20203;-81
2023/10/21 06:25:50;;;;;;;13.57;7.83;;;;;;;;;;5050830;28;20207;-81
2023/10/21 06:28:17;;;;;;;14.40;7.70;;;;;;;;;;5062029;28;20206;-81
2023/10/21 06:30:44;;;;;;;15.13;7.47;;;;;;;;;;5051114;28;20213;-87
2023/10/21 06:33:13;;;;;;;13.70;7.27;;;;;;;;;;5055800;28;20199;-81
2023/10/21 06:35:40;;;;;;;17.63;8.13;;;;;;;;;;5057400;28;20696;-81
2023/10/21 06:38:08;;;;;;;9.23;6.73;;;;;;;;;;5056648;28;20205;-81
2023/10/21 06:40:35;;;;;;;10.57;6.27;;;;;;;;;;5057842;28;20223;-81
2023/10/21 06:43:02;;;;;;;9.07;5.73;;;;;;;;;;5059852;28;20659;-86
2023/10/21 06:45:30;;;;;;;13.47;7.23;;;;;;;;;;5064569;28;20205;-80
2023/10/21 06:47:57;;;;;;;13.57;7.30;;;;;;;;;;5057497;28;20235;-80
2023/10/21 06:50:25;;;;;;;12.03;8.07;;;;;;;;;;5062601;28;20395;-79
2023/10/21 06:52:52;;;;;;;18.50;8.00;;;;;;;;;;5052300;28;20200;-80
2023/10/21 06:55:21;;;;;;;12.80;8.10;;;;;;;;;;5052478;28;20205;-79
2023/10/21 06:57:48;;;;;;;18.97;7.43;;;;;;;;;;5053091;28;20202;-81
2023/10/21 07:00:16;;;;;;;8.83;7.77;;;;;;;;;;5052730;28;20771;-80
2023/10/21 07:02:42;;;;;;;11.57;7.07;;;;;;;;;;5053544;28;20240;-80
2023/10/21 07:05:10;;;;;;;12.30;7.23;;;;;;;;;;5052100;28;20259;-80
2023/10/21 07:07:40;;;;;;;13.80;6.13;;;;;;;;;;5054487;28;20209;-81
2023/10/21 07:10:09;;;;;;;11.23;7.40;;;;;;;;;;5053779;28;20206;-81
2023/10/21 07:12:38;;;;;;;10.13;6.40;;;;;;;;;;5054526;28;20206;-81
2023/10/21 07:15:05;;;;;;;10.00;6.47;;;;;;;;;;5055864;28;20251;-81
2023/10/21 07:17:33;;;;;;;16.60;6.40;;;;;;;;;;5053513;28;20210;-80
2023/10/21 07:20:00;;;;;;;15.00;6.40;;;;;;;;;;5064789;28;20315;-81
2023/10/21 07:22:27;;;;;;;22.43;6.27;;;;;;;;;;5070756;28;20233;-81
2023/10/21 07:24:58;;;;;;;14.83;7.27;;;;;;;;;;5051971;28;20197;-81
2023/10/21 07:27:26;;;;;;;16.83;6.07;;;;;;;;;;5066163;28;20270;-81
2023/10/21 07:29:55;;;;;;;20.63;6.93;;;;;;;;;;5070969;28;20205;-80
2023/10/21 07:32:23;;;;;;;12.30;5.83;;;;;;;;;;5070601;28;20664;-78
2023/10/21 07:34:49;;;;;;;19.27;6.63;;;;;;;;;;5060933;28;20229;-79
2023/10/21 07:37:16;;;;;;;14.23;5.53;;;;;;;;;;5070917;28;20197;-81
2023/10/21 07:39:43;;;;;;;14.07;5.43;;;;;;;;;;5070663;28;20247;-81
2023/10/21 07:42:12;;;;;;;14.00;6.17;;;;;;;;;;5057772;28;20231;-80
2023/10/21 07:44:39;;;;;;;10.47;5.07;;;;;;;;;;5069952;28;20236;-79
2023/10/21 07:47:06;;;;;;;11.73;6.30;;;;;;;;;;5071200;28;20197;-81
2023/10/21 07:49:33;;;;;;;12.80;5.60;;;;;;;;;;5070396;28;21233;-81
2023/10/21 07:52:00;;;;;;;12.33;5.37;;;;;;;;;;5070792;28;20213;-82
2023/10/21 07:54:27;;;;;;;10.33;5.33;;;;;;;;;;5070659;28;20671;-80
2023/10/21 07:57:38;;;;;;;7.47;5.50;;;;;;;;;;5070185;28;20208;-79
2023/10/21 08:00:27;;;;;;;9.87;6.00;;;;;;;;;;5048465;28;20259;-80
2023/10/21 08:03:03;;;;;;;8.27;4.53;;;;;;;;;;5070133;28;20683;-80
2023/10/21 08:06:03;;;;;;;13.27;5.37;;;;;;;;;;5064305;28;20201;-79
2023/10/21 08:08:30;;;;;;;6.63;4.03;;;;;;;;;;5070148;28;20263;-79
2023/10/21 08:11:00;;;;;;;7.87;3.57;;;;;;;;;;5070433;28;20205;-80
2023/10/21 08:13:27;;;;;;;7.17;3.90;;;;;;;;;;5070542;28;20197;-79
2023/10/21 08:15:55;;;;;;;5.87;2.93;;;;;;;;;;5070727;28;20189;-78
2023/10/21 08:18:23;;;;;;;8.10;3.90;;;;;;;;;;5070056;28;20197;-78
2023/10/21 08:20:50;;;;;;;7.90;3.33;;;;;;;;;;5070403;28;20621;-78
2023/10/21 08:23:17;;;;;;;10.33;3.77;;;;;;;;;;5070633;28;20215;-77
2023/10/21 08:25:43;;;;;;;5.73;3.33;;;;;;;;;;5044379;28;20209;-78
2023/10/21 08:28:11;;;;;;;4.53;3.50;;;;;;;;;;5069579;28;20213;-78
2023/10/21 08:30:38;;;;;;;5.13;3.80;;;;;;;;;;5070628;28;20211;-78
2023/10/21 08:33:06;;;;;;;10.47;3.63;;;;;;;;;;5069837;28;20200;-77
2023/10/21 08:35:33;;;;;;;12.30;3.90;;;;;;;;;;5069767;28;20205;-77
2023/10/21 08:38:01;;;;;;;7.77;4.20;;;;;;;;;;5069798;28;20204;-77
2023/10/21 08:40:27;;;;;;;8.20;3.23;;;;;;;;;;5070173;28;20223;-77
2023/10/21 08:42:55;;;;;;;4.57;3.63;;;;;;;;;;5070300;28;20204;-77
2023/10/21 08:45:23;;;;;;;4.37;3.50;;;;;;;;;;5070640;28;20227;-77
2023/10/21 08:47:50;;;;;;;6.77;4.00;;;;;;;;;;5067679;28;20262;-77
2023/10/21 08:50:20;;;;;;;8.10;3.40;;;;;;;;;;5059209;28;20267;-77
2023/10/21 08:52:48;;;;;;;5.60;2.90;;;;;;;;;;5070179;28;20308;-77
2023/10/21 08:55:15;;;;;;;4.87;3.13;;;;;;;;;;5072523;28;20209;-77
2023/10/21 08:57:42;;;;;;;8.80;3.53;;;;;;;;;;5069625;28;20209;-77
2023/10/21 09:00:11;;;;;;;8.07;3.15;;;;;;;;;;5067318;28;20236;-77
2023/10/21 09:02:39;;;;;;;8.75;5.55;;;;;;;;;;5072594;28;20691;-77
2023/10/21 09:05:10;;;;;;;7.57;3.88;;;;;;;;;;5073490;28;20205;-77
2023/10/21 09:07:46;;;;;;;7.13;3.25;;;;;;;;;;5073667;28;20291;-77
2023/10/21 09:10:13;;;;;;;8.88;4.10;;;;;;;;;;5073608;28;20240;-77
2023/10/21 09:12:40;;;;;;;10.93;6.15;;;;;;;;;;5072900;28;20284;-77
2023/10/21 09:15:09;;;;;;;9.25;4.68;;;;;;;;;;5072584;28;20205;-77
2023/10/21 09:17:36;;;;;;;4.40;2.75;;;;;;;;;;5073406;28;20209;-77
2023/10/21 09:20:07;;;;;;;7.97;3.17;;;;;;;;;;5073154;28;20730;-77
2023/10/21 09:22:35;;;;;;;7.70;3.58;;;;;;;;;;5073555;28;20259;-77
2023/10/21 09:25:18;;;;;;;10.52;3.53;;;;;;;;;;5073460;28;20194;-77
2023/10/21 09:27:45;;;;;;;9.15;3.05;;;;;;;;;;5072444;28;20628;-77
2023/10/21 09:30:16;;;;;;;7.30;2.53;;;;;;;;;;5073320;28;20201;-77
2023/10/21 09:32:43;;;;;;;3.63;2.92;;;;;;;;;;5073245;28;20236;-77
2023/10/21 09:35:15;;;;;;;10.40;5.07;;;;;;;;;;5073298;28;20197;-77
2023/10/21 09:37:42;;;;;;;7.90;6.05;;;;;;;;;;5072346;28;20211;-77
2023/10/21 09:40:09;;;;;;;11.07;5.50;;;;;;;;;;5073106;28;20228;-77
2023/10/21 09:42:41;;;;;;;7.88;6.05;;;;;;;;;;5073404;28;20255;-77
2023/10/21 09:45:09;;;;;;;14.02;5.85;;;;;;;;;;5073416;28;20197;-77
2023/10/21 09:47:38;;;;;;;11.98;6.95;;;;;;;;;;5072814;28;20591;-77
2023/10/21 09:50:09;;;;;;;10.38;5.13;;;;;;;;;;5073122;28;20587;-77
2023/10/21 09:52:39;;;;;;;8.05;5.45;;;;;;;;;;5072314;28;20262;-77
2023/10/21 09:55:08;;;;;;;8.70;5.55;;;;;;;;;;5072525;28;20204;-77
2023/10/21 09:57:36;;;;;;;7.15;5.90;;;;;;;;;;5072615;28;20205;-76
2023/10/21 10:00:07;;;;;;;10.52;5.43;;;;;;;;;;5072966;28;20208;-77
2023/10/21 10:02:35;;;;;;;10.93;5.20;;;;;;;;;;5072515;28;20691;-76
2023/10/21 10:05:06;;;;;;;7.90;5.47;;;;;;;;;;5072329;28;20201;-76
2023/10/21 10:07:35;;;;;;;12.05;5.03;;;;;;;;;;5071655;28;20197;-77
2023/10/21 10:10:03;;;;;;;7.45;5.05;;;;;;;;;;5072270;28;20229;-76
2023/10/21 10:12:33;;;;;;;10.65;5.32;;;;;;;;;;5072475;28;20197;-79
2023/10/21 10:15:00;;;;;;;5.38;4.88;;;;;;;;;;5072258;28;20676;-78
2023/10/21 10:17:50;;;;;;;10.75;4.75;;;;;;;;;;5072439;28;20638;-79
2023/10/21 10:20:19;;;;;;;9.63;5.50;;;;;;;;;;5072186;28;20767;-79
2023/10/21 10:22:49;;;;;;;12.07;5.97;;;;;;;;;;5072154;28;20216;-78
2023/10/21 10:25:25;;;;;;;6.05;4.80;;;;;;;;;;5072392;28;20237;-79
2023/10/21 10:27:57;;;;;;;11.32;5.20;;;;;;;;;;5072229;28;20262;-78
2023/10/21 10:30:24;;;;;;;6.88;5.32;;;;;;;;;;5071558;28;20208;-78
2023/10/21 10:32:53;;;;;;;10.55;5.45;;;;;;;;;;5071963;28;20211;-79
2023/10/21 10:35:31;;;;;;;6.68;4.70;;;;;;;;;;5072109;28;20667;-79
2023/10/21 10:37:59;;;;;;;6.15;4.25;;;;;;;;;;5071658;28;20232;-79
2023/10/21 10:40:35;;;;;;;15.68;5.50;;;;;;;;;;5071732;28;20216;-79
2023/10/21 10:43:04;;;;;;;12.18;4.85;;;;;;;;;;5071601;28;20672;-79
2023/10/21 10:45:34;;;;;;;8.98;4.40;;;;;;;;;;5072404;28;20201;-79
2023/10/21 10:48:03;;;;;;;12.25;4.40;;;;;;;;;;5071127;28;20211;-78
2023/10/21 10:50:36;;;;;;;8.43;4.40;;;;;;;;;;5072107;28;20228;-78
2023/10/21 10:53:12;;;;;;;7.65;4.00;;;;;;;;;;5071746;28;20193;-78
2023/10/21 10:55:41;;;;;;;7.35;4.00;;;;;;;;;;5072142;28;20224;-78
2023/10/21 10:58:08;;;;;;;8.55;4.72;;;;;;;;;;5059528;28;20213;-80
2023/10/21 11:00:35;;;;;;;11.98;4.13;;;;;;;;;;5070343;28;20221;-79
2023/10/21 11:03:03;;;;;;;6.22;3.95;;;;;;;;;;5066131;28;20205;-79
2023/10/21 11:05:30;;;;;;;9.93;4.53;;;;;;;;;;5060448;28;20204;-79
2023/10/21 11:07:57;;;;;;;8.05;3.85;;;;;;;;;;5055219;28;20221;-81
2023/10/21 11:10:25;;;;;;;12.70;3.88;;;;;;;;;;5067627;28;20193;-79
2023/10/21 11:12:53;;;;;;;6.82;3.55;;;;;;;;;;5065570;28;20598;-79
2023/10/21 11:15:21;;;;;;;15.70;4.68;;;;;;;;;;5058794;28;20205;-79
2023/10/21 11:17:51;;;;;;;4.80;3.30;;;;;;;;;;5070987;28;20217;-79
2023/10/21 11:20:19;;;;;;;8.75;3.75;;;;;;;;;;5070831;28;20201;-79
2023/10/21 11:22:46;;;;;;;6.82;4.05;;;;;;;;;;5071472;28;20286;-79
2023/10/21 11:25:13;;;;;;;8.07;3.60;;;;;;;;;;5071325;28;20208;-79
2023/10/21 11:27:41;;;;;;;7.20;4.28;;;;;;;;;;5070587;28;20213;-79
2023/10/21 11:30:09;;;;;;;7.53;3.70;;;;;;;;;;5070611;28;20235;-79
2023/10/21 11:32:37;;;;;;;9.70;3.75;;;;;;;;;;5070857;28;20260;-79
2023/10/21 11:35:04;;;;;;;6.50;3.55;;;;;;;;;;5063916;28;20280;-79
2023/10/21 11:37:33;;;;;;;8.63;4.28;;;;;;;;;;5064249;28;20227;-79
2023/10/21 11:40:00;;;;;;;7.10;3.75;;;;;;;;;;5045237;28;20198;-79
2023/10/21 11:42:27;;;;;;;8.27;4.05;;;;;;;;;;5070833;28;20284;-79
2023/10/21 11:44:58;;;;;;;5.75;3.78;;;;;;;;;;5070898;28;20633;-78
2023/10/21 11:47:27;;;;;;;6.60;4.30;;;;;;;;;;5070517;28;20599;-78
2023/10/21 11:49:54;;;;;;;7.70;3.40;;;;;;;;;;5070904;28;20249;-78
2023/10/21 11:52:22;;;;;;;6.32;4.45;;;;;;;;;;5070698;28;20225;-78
2023/10/21 11:55:20;;;;;;;8.75;4.72;;;;;;;;;;5070092;28;20246;-78
2023/10/21 12:17:50;;;;;;;7.28;3.80;;;;;;;;;;5028085;28;20206;-78
2023/10/21 12:23:17;;;;;;;12.82;3.92;;;;;;;;;;5056408;28;20274;-77
2023/10/21 12:31:39;;;;;;;11.63;3.83;;;;;;;;;;5073934;28;20839;-78
2023/10/21 12:39:37;;;;;;;4.82;3.90;;;;;;;;;;5073796;28;20725;-77
2023/10/21 12:42:17;;;;;;;5.63;3.92;;;;;;;;;;5074072;28;20201;-78
2023/10/21 12:44:51;;;;;;;12.07;4.13;;;;;;;;;;5073802;28;20197;-77
2023/10/21 12:47:17;;;;;;;10.63;5.00;;;;;;;;;;5074124;28;20232;-78
2023/10/21 12:49:45;;;;;;;6.55;4.68;;;;;;;;;;5072029;28;20252;-78
2023/10/21 12:52:12;;;;;;;9.25;3.63;;;;;;;;;;5073888;28;20228;-77
2023/10/21 12:54:39;;;;;;;5.28;3.85;;;;;;;;;;5073961;28;20197;-78
2023/10/21 12:57:07;;;;;;;10.60;3.75;;;;;;;;;;5073794;28;20201;-77
2023/10/21 12:59:34;;;;;;;6.97;4.10;;;;;;;;;;5073154;28;20209;-77
2023/10/21 13:02:07;;;;;;;6.50;3.75;;;;;;;;;;5073677;28;20208;-77
2023/10/21 13:04:35;;;;;;;5.63;3.25;;;;;;;;;;5073446;28;20664;-77
2023/10/21 13:07:04;;;;;;;13.70;5.07;;;;;;;;;;5073716;28;20208;-78
2023/10/21 13:09:31;;;;;;;8.48;3.72;;;;;;;;;;5047826;28;20292;-77
2023/10/21 13:11:58;;;;;;;5.45;3.78;;;;;;;;;;5073036;28;20229;-78
2023/10/21 13:14:27;;;;;;;7.55;3.40;;;;;;;;;;5073861;28;20213;-77
2023/10/21 13:16:55;;;;;;;10.30;3.50;;;;;;;;;;5072957;28;20213;-78
2023/10/21 13:19:25;;;;;;;8.43;3.38;;;;;;;;;;5073906;28;20201;-77
2023/10/21 13:21:53;;;;;;;6.13;3.70;;;;;;;;;;5071370;28;20197;-77
2023/10/21 13:24:20;;;;;;;9.15;3.17;;;;;;;;;;5065616;28;20288;-77
2023/10/21 13:26:47;;;;;;;9.93;2.85;;;;;;;;;;5071891;28;20233;-77
2023/10/21 13:29:14;;;;;;;7.00;3.22;;;;;;;;;;5073444;28;20209;-77
2023/10/21 13:31:41;;;;;;;7.90;3.67;;;;;;;;;;5046851;28;20217;-77
2023/10/21 13:34:08;;;;;;;8.02;2.67;;;;;;;;;;5072997;28;20201;-78
2023/10/21 13:36:36;;;;;;;7.35;2.90;;;;;;;;;;5072779;28;20205;-77
2023/10/21 13:39:08;;;;;;;7.82;3.35;;;;;;;;;;5072819;28;20205;-78
2023/10/21 13:41:36;;;;;;;10.85;3.80;;;;;;;;;;5072253;28;20213;-77
2023/10/21 13:44:05;;;;;;;6.97;3.42;;;;;;;;;;5072698;28;20763;-78
2023/10/21 13:46:34;;;;;;;10.15;3.33;;;;;;;;;;5072769;28;20239;-75
2023/10/21 13:49:02;;;;;;;8.93;2.90;;;;;;;;;;5072497;28;20209;-79
2023/10/21 13:51:29;;;;;;;6.25;3.63;;;;;;;;;;5072916;28;20607;-79
2023/10/21 13:53:57;;;;;;;8.00;4.03;;;;;;;;;;5073417;28;20211;-77
2023/10/21 13:56:24;;;;;;;10.25;3.88;;;;;;;;;;5072377;28;20217;-75
2023/10/21 13:58:53;;;;;;;7.65;3.40;;;;;;;;;;5073037;28;20208;-78
2023/10/21 14:01:22;;;;;;;11.23;3.13;;;;;;;;;;5072629;28;20216;-78
2023/10/21 14:03:49;;;;;;;7.00;3.55;;;;;;;;;;5072705;28;20687;-78
2023/10/21 14:06:19;;;;;;;10.57;3.47;;;;;;;;;;5072311;28;20205;-79
2023/10/21 14:08:48;;;;;;;11.55;3.33;;;;;;;;;;5072896;28;20231;-79
2023/10/21 14:11:17;;;;;;;7.25;3.40;;;;;;;;;;5046958;28;20209;-78
2023/10/21 14:13:46;;;;;;;7.85;2.92;;;;;;;;;;5072646;28;20776;-77
2023/10/21 14:16:13;;;;;;;8.80;3.13;;;;;;;;;;5071478;28;20753;-77
2023/10/21 14:18:42;;;;;;;11.23;3.10;;;;;;;;;;5070174;28;20210;-77
2023/10/21 14:21:10;;;;;;;13.00;2.95;;;;;;;;;;5041157;28;20229;-77
2023/10/21 14:23:37;;;;;;;11.43;2.97;;;;;;;;;;5065803;28;20201;-77
2023/10/21 14:26:06;;;;;;;11.35;3.00;;;;;;;;;;5064331;28;20193;-77
2023/10/21 14:28:34;;;;;;;5.70;2.95;;;;;;;;;;5056215;28;20292;-77
2023/10/21 14:31:03;;;;;;;11.85;3.03;;;;;;;;;;5055365;28;20702;-76
2023/10/21 14:33:31;;;;;;;8.07;3.08;;;;;;;;;;5067259;28;20229;-77
2023/10/21 14:36:00;;;;;;;7.63;3.25;;;;;;;;;;5067042;28;20260;-77
2023/10/21 14:38:27;;;;;;;9.90;3.75;;;;;;;;;;5057938;28;20249;-79
2023/10/21 14:40:55;;;;;;;10.55;4.57;;;;;;;;;;5068966;28;20204;-77
2023/10/21 14:43:21;;;;;;;9.38;5.53;;;;;;;;;;5071844;28;20223;-78
2023/10/21 14:45:50;;;;;;;10.30;3.50;;;;;;;;;;5071491;28;20200;-77
2023/10/21 14:48:19;;;;;;;11.35;3.08;;;;;;;;;;5070766;28;20209;-78
2023/10/21 14:50:47;;;;;;;10.63;3.60;;;;;;;;;;5058254;28;20307;-77
2023/10/21 14:53:14;;;;;;;10.32;3.08;;;;;;;;;;5056018;28;20230;-77
2023/10/21 14:55:43;;;;;;;7.63;3.10;;;;;;;;;;5062027;28;20630;-77
2023/10/21 14:58:11;;;;;;;18.92;3.17;;;;;;;;;;5050061;28;20206;-78
2023/10/21 15:00:38;;;;;;;11.77;3.90;;;;;;;;;;5064057;28;20205;-78
2023/10/21 15:03:07;;;;;;;10.77;3.15;;;;;;;;;;5058127;28;20208;-78
2023/10/21 15:05:34;;;;;;;9.23;3.22;;;;;;;;;;5063734;28;20209;-77
2023/10/21 15:08:02;;;;;;;7.00;3.45;;;;;;;;;;5059289;28;20213;-77
2023/10/21 15:10:29;;;;;;;10.13;3.40;;;;;;;;;;5056683;28;20206;-77
2023/10/21 15:12:56;;;;;;;8.10;2.78;;;;;;;;;;5060863;28;20226;-77
2023/10/21 15:15:23;;;;;;;12.02;3.03;;;;;;;;;;5063017;28;20208;-78
2023/10/21 15:17:52;;;;;;;13.30;2.92;;;;;;;;;;5062194;28;20197;-77
2023/10/21 15:20:20;;;;;;;6.45;3.13;;;;;;;;;;5063523;28;20292;-77